createdAt,value
2022-08-27T05:19:17.869Z,90.58
2022-08-27T05:20:20.055Z,90.66
2022-08-27T05:21:29.297Z,90.54
2022-08-27T05:22:31.533Z,90.56
2022-08-27T05:23:34.071Z,90.71
2022-08-27T05:24:39.059Z,90.63
2022-08-27T05:25:42.479Z,90.71
2022-08-27T05:26:44.642Z,90.68
2022-08-27T05:27:46.440Z,91.04
2022-08-27T05:28:48.533Z,91.02
2022-08-27T05:29:50.398Z,91.21
2022-08-27T05:30:55.773Z,91.00
2022-08-27T05:31:58.172Z,91.39
2022-08-27T05:33:00.080Z,91.48
2022-08-27T05:34:02.195Z,91.33
2022-08-27T05:35:15.586Z,91.21
2022-08-27T05:36:28.419Z,90.81
2022-08-27T05:37:30.617Z,90.49
2022-08-27T05:38:33.256Z,90.23
2022-08-27T05:39:35.058Z,89.88
2022-08-27T05:40:37.624Z,89.74
2022-08-27T05:41:39.784Z,89.60
2022-08-27T05:42:42.955Z,89.52
2022-08-27T05:43:50.665Z,89.81
2022-08-27T05:44:52.972Z,90.01
2022-08-27T05:45:54.873Z,89.93
2022-08-27T05:46:56.750Z,90.27
2022-08-27T05:47:59.024Z,90.26
2022-08-27T05:49:02.027Z,90.09
2022-08-27T05:50:04.141Z,90.16
2022-08-27T05:51:11.815Z,90.05
2022-08-27T05:52:13.847Z,89.94
2022-08-27T05:53:15.640Z,89.86
2022-08-27T05:54:19.955Z,89.64
2022-08-27T05:55:22.105Z,89.96
2022-08-27T05:56:25.466Z,90.20
2022-08-27T05:57:27.410Z,90.17
2022-08-27T05:58:47.773Z,90.28
2022-08-27T06:00:08.010Z,89.97
2022-08-27T06:01:21.111Z,89.78
2022-08-27T06:02:23.059Z,89.71
2022-08-27T06:03:24.899Z,89.56
2022-08-27T06:04:26.775Z,89.56
2022-08-27T06:05:28.710Z,89.72
2022-08-27T06:06:30.931Z,89.62
2022-08-27T06:07:33.047Z,89.65
2022-08-27T06:08:35.609Z,89.67
2022-08-27T06:09:38.245Z,89.78
2022-08-27T06:10:41.373Z,89.79
2022-08-27T06:11:43.217Z,89.88
2022-08-27T06:12:45.012Z,89.79
2022-08-27T06:13:47.327Z,89.96
2022-08-27T06:14:49.117Z,90.01
2022-08-27T06:15:51.467Z,89.99
2022-08-27T06:16:53.264Z,90.50
2022-08-27T06:17:55.154Z,90.54
2022-08-27T06:18:57.972Z,90.53
2022-08-27T06:19:59.767Z,90.28
2022-08-27T06:21:01.611Z,90.28
2022-08-27T06:22:10.649Z,90.15
2022-08-27T06:23:12.878Z,90.07
2022-08-27T06:24:14.724Z,89.91
2022-08-27T06:25:16.555Z,89.74
2022-08-27T06:26:19.323Z,89.70
2022-08-27T06:27:21.250Z,89.77
2022-08-27T06:28:24.235Z,89.74
2022-08-27T06:29:26.180Z,89.90
2022-08-27T06:30:27.973Z,89.73
2022-08-27T06:31:31.426Z,89.89
2022-08-27T06:32:33.340Z,90.08
2022-08-27T06:33:35.198Z,89.81
2022-08-27T06:34:37.309Z,90.21
2022-08-27T06:35:39.225Z,90.35
2022-08-27T06:36:42.652Z,90.43
2022-08-27T06:37:44.581Z,90.44
2022-08-27T06:38:47.625Z,90.53
2022-08-27T06:39:51.868Z,90.36
2022-08-27T06:40:54.215Z,90.22
2022-08-27T06:41:58.927Z,90.28
2022-08-27T06:43:02.170Z,90.07
2022-08-27T06:44:03.991Z,90.04
2022-08-27T06:45:06.250Z,90.08
2022-08-27T06:46:09.602Z,89.91
2022-08-27T06:47:11.569Z,89.77
2022-08-27T06:48:13.480Z,89.68
2022-08-27T06:49:15.271Z,89.71
2022-08-27T06:50:20.201Z,89.84
2022-08-27T06:51:33.623Z,90.06
2022-08-27T06:52:35.462Z,89.93
2022-08-27T06:53:37.230Z,89.75
2022-08-27T06:54:40.471Z,89.44
2022-08-27T06:55:43.264Z,89.56
2022-08-27T06:56:45.156Z,89.57
2022-08-27T06:57:46.977Z,89.47
2022-08-27T06:58:48.871Z,89.37
2022-08-27T06:59:50.769Z,89.47
2022-08-27T07:00:52.645Z,89.69
2022-08-27T07:01:54.651Z,89.74
2022-08-27T07:02:56.815Z,90.37
2022-08-27T07:04:00.005Z,90.31
2022-08-27T07:05:01.873Z,90.37
2022-08-27T07:06:05.375Z,90.52
2022-08-27T07:07:08.371Z,90.27
2022-08-27T07:08:11.563Z,89.81
2022-08-27T07:09:14.366Z,89.51
2022-08-27T07:10:16.160Z,89.56
2022-08-27T07:11:18.136Z,89.31
2022-08-27T07:12:21.723Z,89.02
2022-08-27T07:13:32.765Z,89.12
2022-08-27T07:14:38.138Z,88.68
2022-08-27T07:15:40.540Z,88.66
2022-08-27T07:16:43.440Z,88.75
2022-08-27T07:17:47.407Z,88.91
2022-08-27T07:18:51.483Z,88.80
2022-08-27T07:19:53.406Z,88.97
2022-08-27T07:20:55.668Z,89.28
2022-08-27T07:21:57.610Z,89.18
2022-08-27T07:22:59.609Z,88.94
2022-08-27T07:24:05.320Z,88.75
2022-08-27T07:25:09.394Z,88.63
2022-08-27T07:26:12.632Z,88.68
2022-08-27T07:27:14.481Z,88.64
2022-08-27T07:28:16.742Z,89.29
2022-08-27T07:29:18.665Z,89.21
2022-08-27T07:30:20.573Z,89.13
2022-08-27T07:31:23.654Z,89.03
2022-08-27T07:32:30.441Z,89.22
2022-08-27T07:33:33.899Z,89.04
2022-08-27T07:34:35.851Z,88.65
2022-08-27T07:35:37.705Z,88.84
2022-08-27T07:36:40.002Z,88.62
2022-08-27T07:37:42.192Z,88.52
2022-08-27T07:38:44.098Z,88.32
2022-08-27T07:39:50.379Z,88.15
2022-08-27T07:40:52.740Z,88.15
2022-08-27T07:42:14.714Z,88.08
2022-08-27T07:43:34.924Z,88.11
2022-08-27T07:44:37.291Z,88.12
2022-08-27T07:45:48.850Z,87.81
2022-08-27T07:46:51.292Z,87.95
2022-08-27T07:47:53.790Z,87.84
2022-08-27T07:48:58.425Z,88.07
2022-08-27T07:50:00.298Z,87.69
2022-08-27T07:51:05.613Z,87.71
2022-08-27T07:52:07.435Z,87.98
2022-08-27T07:53:09.992Z,87.90
2022-08-27T07:54:12.086Z,87.93
2022-08-27T07:55:14.686Z,87.82
2022-08-27T07:56:16.774Z,87.51
2022-08-27T07:57:18.625Z,87.39
2022-08-27T07:58:20.474Z,87.53
2022-08-27T07:59:24.142Z,87.48
2022-08-27T08:00:26.235Z,87.28
2022-08-27T08:01:29.184Z,87.38
2022-08-27T08:02:31.766Z,87.48
2022-08-27T08:03:33.979Z,87.32
2022-08-27T08:04:36.115Z,87.01
2022-08-27T08:05:44.407Z,86.82
2022-08-27T08:06:46.290Z,87.04
2022-08-27T08:07:48.153Z,86.83
2022-08-27T08:08:49.985Z,86.67
2022-08-27T08:09:52.381Z,86.50
2022-08-27T08:10:57.096Z,86.58
2022-08-27T08:11:58.952Z,86.28
2022-08-27T08:13:00.772Z,86.23
2022-08-27T08:14:02.651Z,86.98
2022-08-27T08:15:07.801Z,88.58
2022-08-27T08:16:10.120Z,89.46
2022-08-27T08:17:12.121Z,89.39
2022-08-27T08:18:14.611Z,89.13
2022-08-27T08:19:16.682Z,89.43
2022-08-27T08:20:27.577Z,89.06
2022-08-27T08:21:38.929Z,87.90
2022-08-27T08:22:40.825Z,88.95
2022-08-27T08:23:43.176Z,89.07
2022-08-27T08:24:45.066Z,90.08
2022-08-27T08:25:46.895Z,89.82
2022-08-27T08:26:48.881Z,88.82
2022-08-27T08:27:50.781Z,88.48
2022-08-27T08:28:52.655Z,88.31
2022-08-27T08:29:54.437Z,88.22
2022-08-27T08:30:56.873Z,87.80
2022-08-27T08:31:58.836Z,87.19
2022-08-27T08:33:00.620Z,87.39
2022-08-27T08:34:02.468Z,87.23
2022-08-27T08:35:05.385Z,87.15
2022-08-27T08:36:10.204Z,87.61
2022-08-27T08:37:14.575Z,88.93
2022-08-27T08:38:19.701Z,89.07
2022-08-27T08:39:22.193Z,88.85
2022-08-27T08:40:39.252Z,88.63
2022-08-27T08:41:43.933Z,89.00
2022-08-27T08:42:51.570Z,89.03
2022-08-27T08:43:54.197Z,89.32
2022-08-27T08:44:58.158Z,89.58
2022-08-27T08:46:09.065Z,89.07
2022-08-27T08:47:14.768Z,89.45
2022-08-27T08:48:19.649Z,87.82
2022-08-27T08:49:21.428Z,88.35
2022-08-27T08:50:29.302Z,87.87
2022-08-27T08:51:40.861Z,87.38
2022-08-27T08:52:53.066Z,87.74
2022-08-27T08:54:01.320Z,85.76
2022-08-27T08:55:21.654Z,85.12
2022-08-27T08:56:29.329Z,84.30
2022-08-27T08:57:38.496Z,84.46
2022-08-27T08:58:52.585Z,82.84
2022-08-27T08:59:57.120Z,83.74
2022-08-27T09:01:00.687Z,83.68
2022-08-27T09:02:02.523Z,83.10
2022-08-27T09:03:04.461Z,82.30
2022-08-27T09:04:09.376Z,82.54
2022-08-27T09:05:11.784Z,82.03
2022-08-27T09:06:25.689Z,82.14
2022-08-27T09:07:45.710Z,82.94
2022-08-27T09:08:49.523Z,81.08
2022-08-27T09:09:51.365Z,81.73
2022-08-27T09:10:59.027Z,82.75
2022-08-27T09:12:15.646Z,82.89
2022-08-27T09:13:36.293Z,81.18
2022-08-27T09:14:45.195Z,81.24
2022-08-27T09:15:49.142Z,82.22
2022-08-27T09:16:50.978Z,81.99
2022-08-27T09:18:14.143Z,80.80
2022-08-27T09:19:16.490Z,81.83
2022-08-27T09:20:26.049Z,80.66
2022-08-27T09:21:28.209Z,80.53
2022-08-27T09:22:50.049Z,80.63
2022-08-27T09:23:59.193Z,80.62
2022-08-27T09:25:21.243Z,80.09
2022-08-27T09:26:27.561Z,80.81
2022-08-27T09:29:20.536Z,79.77
2022-08-27T09:30:30.524Z,79.79
2022-08-27T09:31:36.215Z,79.81
2022-08-27T09:32:39.487Z,79.56
2022-08-27T09:33:55.649Z,79.14
2022-08-27T09:35:03.987Z,79.49
2022-08-27T09:36:09.634Z,79.72
2022-08-27T09:37:15.841Z,79.34
2022-08-27T09:38:30.987Z,79.55
2022-08-27T09:39:35.116Z,79.12
2022-08-27T09:40:46.605Z,79.97
2022-08-27T09:41:49.004Z,79.97
2022-08-27T09:42:53.579Z,80.65
2022-08-27T09:43:59.588Z,78.77
2022-08-27T09:45:01.538Z,79.18
2022-08-27T09:46:08.002Z,78.91
2022-08-27T09:47:13.477Z,79.20
2022-08-27T09:48:18.397Z,79.49
2022-08-27T09:49:20.271Z,78.55
2022-08-27T09:50:24.239Z,78.31
2022-08-27T09:51:27.897Z,78.67
2022-08-27T09:52:38.015Z,76.89
2022-08-27T09:53:50.587Z,76.34
2022-08-27T09:54:56.087Z,77.40
2022-08-27T09:55:59.543Z,77.08
2022-08-27T09:57:02.406Z,77.46
2022-08-27T09:58:06.693Z,76.71
2022-08-27T09:59:13.123Z,77.63
2022-08-27T10:00:17.158Z,75.66
2022-08-27T10:01:29.821Z,76.09
2022-08-27T10:02:31.769Z,76.23
2022-08-27T10:03:34.281Z,76.18
2022-08-27T10:04:51.307Z,73.95
2022-08-27T10:05:54.882Z,74.84
2022-08-27T10:06:56.697Z,74.81
2022-08-27T10:08:01.097Z,74.05
2022-08-27T10:09:13.798Z,75.15
2022-08-27T10:10:25.948Z,74.80
2022-08-27T10:11:37.501Z,74.31
2022-08-27T10:12:55.630Z,72.78
2022-08-27T10:13:57.446Z,74.49
2022-08-27T10:15:00.650Z,75.36
2022-08-27T10:16:07.249Z,72.59
2022-08-27T10:17:18.334Z,73.87
2022-08-27T10:18:26.649Z,74.81
2022-08-27T10:19:28.439Z,75.57
2022-08-27T10:20:49.463Z,73.81
2022-08-27T10:22:11.905Z,74.27
2022-08-27T10:23:34.354Z,73.23
2022-08-27T10:24:39.123Z,74.64
2022-08-27T10:25:50.037Z,74.30
2022-08-27T10:27:10.928Z,75.11
2022-08-27T10:28:18.816Z,75.11
2022-08-27T10:29:41.789Z,74.29
2022-08-27T10:31:06.305Z,73.30
2022-08-27T10:32:08.231Z,72.04
2022-08-27T10:33:22.822Z,72.62
2022-08-27T10:34:50.607Z,71.70
2022-08-27T10:35:54.984Z,70.15
2022-08-27T10:37:15.713Z,70.37
2022-08-27T10:38:24.362Z,71.28
2022-08-27T10:39:44.847Z,69.14
2022-08-27T10:40:52.049Z,69.82
2022-08-27T10:42:03.114Z,70.77
2022-08-27T10:43:14.066Z,70.20
2022-08-27T10:44:35.016Z,71.29
2022-08-27T10:45:43.008Z,68.62
2022-08-27T10:46:47.523Z,67.32
2022-08-27T10:48:04.185Z,68.92
2022-08-27T10:49:26.962Z,69.22
2022-08-27T10:50:48.425Z,68.15
2022-08-27T10:52:06.429Z,67.73
2022-08-27T10:53:30.732Z,68.38
2022-08-27T10:54:40.530Z,69.06
2022-08-27T10:55:43.282Z,67.37
2022-08-27T10:56:45.029Z,65.39
2022-08-27T10:58:05.469Z,66.53
2022-08-27T10:59:19.287Z,67.42
2022-08-27T11:00:22.640Z,64.03
2022-08-27T11:01:47.981Z,65.21
2022-08-27T11:02:49.990Z,67.36
2022-08-27T11:03:58.861Z,65.81
2022-08-27T11:05:03.747Z,65.42
2022-08-27T11:06:28.249Z,64.42
2022-08-27T11:07:33.204Z,64.70
2022-08-27T11:08:43.629Z,64.03
2022-08-27T11:09:56.160Z,64.53
2022-08-27T11:11:26.074Z,64.01
2022-08-27T11:12:28.960Z,64.55
2022-08-27T11:13:35.505Z,64.62
2022-08-27T11:14:41.903Z,66.81
2022-08-27T11:15:46.491Z,65.24
2022-08-27T11:16:51.897Z,66.31
2022-08-27T11:17:57.309Z,64.23
2022-08-27T11:19:03.072Z,64.22
2022-08-27T11:20:10.955Z,64.83
2022-08-27T11:21:25.561Z,64.82
2022-08-27T11:22:34.853Z,64.21
2022-08-27T11:23:41.203Z,64.46
2022-08-27T11:24:57.609Z,66.20
2022-08-27T11:26:02.611Z,63.65
2022-08-27T11:27:07.466Z,64.53
2022-08-27T11:28:10.977Z,64.99
2022-08-27T11:29:28.454Z,65.19
2022-08-27T11:30:35.719Z,65.95
2022-08-27T11:31:44.050Z,64.24
2022-08-27T11:32:46.074Z,66.39
2022-08-27T11:33:54.348Z,65.38
2022-08-27T11:35:00.823Z,65.42
2022-08-27T11:36:02.651Z,66.72
2022-08-27T11:37:23.188Z,67.00
2022-08-27T11:38:38.791Z,67.03
2022-08-27T11:39:51.785Z,66.89
2022-08-27T11:41:08.123Z,67.30
2022-08-27T11:42:14.573Z,68.11
2022-08-27T11:43:22.768Z,66.78
2022-08-27T11:44:25.769Z,67.79
2022-08-27T11:45:35.072Z,66.63
2022-08-27T11:46:44.367Z,64.13
2022-08-27T11:47:57.538Z,64.80
2022-08-27T11:49:03.381Z,64.59
2022-08-27T11:50:08.374Z,63.17
2022-08-27T11:51:18.875Z,63.96
2022-08-27T11:52:22.796Z,64.57
2022-08-27T11:53:28.412Z,64.34
2022-08-27T11:54:32.493Z,63.55
2022-08-27T11:55:38.873Z,64.59
2022-08-27T11:56:43.082Z,63.74
2022-08-27T11:57:45.636Z,64.97
2022-08-27T11:58:52.639Z,63.76
2022-08-27T11:59:56.013Z,65.03
2022-08-27T12:01:03.791Z,63.82
2022-08-27T12:02:20.952Z,65.51
2022-08-27T12:03:32.497Z,65.43
2022-08-27T12:04:36.710Z,66.43
2022-08-27T12:05:38.567Z,65.88
2022-08-27T12:06:43.387Z,65.79
2022-08-27T12:07:46.440Z,66.04
2022-08-27T12:08:48.594Z,66.46
2022-08-27T12:09:53.881Z,65.78
2022-08-27T12:11:07.597Z,65.88
2022-08-27T12:12:09.348Z,65.40
2022-08-27T12:13:19.904Z,66.16
2022-08-27T12:14:40.316Z,65.44
2022-08-27T12:16:00.695Z,66.20
2022-08-27T12:17:05.377Z,66.75
2022-08-27T12:18:10.468Z,66.21
2022-08-27T12:19:15.449Z,66.15
2022-08-27T12:20:35.982Z,66.59
2022-08-27T12:21:45.100Z,67.45
2022-08-27T12:23:28.854Z,66.75
2022-08-27T12:24:55.508Z,67.22
2022-08-27T12:26:00.616Z,66.96
2022-08-27T12:27:14.776Z,67.51
2022-08-27T12:28:26.572Z,66.95
2022-08-27T12:29:34.360Z,67.68
2022-08-27T12:30:38.786Z,67.88
2022-08-27T12:31:42.119Z,68.37
2022-08-27T12:32:45.236Z,68.13
2022-08-27T12:33:48.300Z,67.95
2022-08-27T12:34:57.710Z,68.36
2022-08-27T12:36:07.814Z,68.45
2022-08-27T12:37:10.234Z,68.50
2022-08-27T12:38:21.065Z,68.67
2022-08-27T12:39:29.034Z,68.42
2022-08-27T12:40:38.619Z,68.06
2022-08-27T12:41:45.032Z,67.61
2022-08-27T12:42:47.044Z,68.07
2022-08-27T12:43:49.608Z,68.55
2022-08-27T12:44:55.400Z,68.08
2022-08-27T12:45:57.425Z,69.30
2022-08-27T12:47:02.252Z,68.60
2022-08-27T12:48:09.466Z,68.81
2022-08-27T12:49:36.791Z,69.38
2022-08-27T12:50:33.396Z,69.08
2022-08-27T12:51:38.270Z,68.76
2022-08-27T12:52:42.671Z,67.79
2022-08-27T12:53:46.973Z,66.74
2022-08-27T12:54:51.660Z,67.29
2022-08-27T12:55:59.832Z,67.21
2022-08-27T12:57:04.881Z,67.70
2022-08-27T12:58:26.246Z,67.04
2022-08-27T12:59:28.080Z,67.81
2022-08-27T13:00:36.475Z,67.83
2022-08-27T13:01:54.416Z,68.76
2022-08-27T13:03:09.056Z,68.39
2022-08-27T13:04:20.653Z,67.50
2022-08-27T13:05:23.028Z,68.42
2022-08-27T13:06:30.369Z,68.77
2022-08-27T13:07:37.763Z,68.52
2022-08-27T13:08:39.696Z,68.18
2022-08-27T13:09:41.532Z,67.95
2022-08-27T13:10:43.425Z,67.37
2022-08-27T13:11:48.137Z,68.15
2022-08-27T13:13:00.645Z,68.16
2022-08-27T13:14:10.389Z,67.27
2022-08-27T13:15:14.470Z,66.08
2022-08-27T13:16:22.042Z,66.45
2022-08-27T13:17:24.092Z,67.20
2022-08-27T13:18:30.063Z,66.46
2022-08-27T13:19:34.660Z,65.52
2022-08-27T13:20:37.923Z,65.73
2022-08-27T13:21:39.779Z,66.22
2022-08-27T13:22:43.887Z,65.31
2022-08-27T13:23:47.917Z,64.33
2022-08-27T13:24:50.927Z,64.36
2022-08-27T13:25:57.634Z,65.64
2022-08-27T13:27:00.121Z,65.36
2022-08-27T13:28:13.713Z,66.24
2022-08-27T13:29:15.904Z,65.63
2022-08-27T13:30:35.233Z,66.15
2022-08-27T13:31:38.726Z,65.16
2022-08-27T13:32:41.321Z,66.33
2022-08-27T13:33:44.232Z,66.04
2022-08-27T13:34:46.685Z,66.87
2022-08-27T13:35:48.769Z,67.30
2022-08-27T13:36:56.327Z,66.73
2022-08-27T13:37:59.321Z,67.45
2022-08-27T13:39:02.340Z,67.60
2022-08-27T13:40:05.446Z,67.21
2022-08-27T13:41:27.826Z,66.28
2022-08-27T13:42:31.518Z,67.44
2022-08-27T13:43:36.456Z,67.62
2022-08-27T13:44:40.884Z,67.25
2022-08-27T13:45:49.106Z,67.49
2022-08-27T13:46:53.769Z,67.00
2022-08-27T13:47:55.832Z,67.69
2022-08-27T13:48:59.038Z,68.16
2022-08-27T13:50:21.077Z,68.08
2022-08-27T13:51:30.739Z,67.69
2022-08-27T13:52:34.441Z,66.34
2022-08-27T13:53:55.105Z,66.69
2022-08-27T13:55:05.994Z,67.94
2022-08-27T13:56:07.846Z,65.52
2022-08-27T13:57:11.490Z,66.44
2022-08-27T13:58:25.425Z,63.37
2022-08-27T13:59:28.177Z,65.15
2022-08-27T14:00:32.082Z,66.02
2022-08-27T14:01:33.944Z,66.33
2022-08-27T14:02:36.007Z,66.50
2022-08-27T14:03:47.372Z,66.16
2022-08-27T14:05:08.015Z,64.38
2022-08-27T14:06:10.413Z,64.37
2022-08-27T14:07:13.694Z,64.45
2022-08-27T14:08:18.130Z,65.21
2022-08-27T14:09:23.128Z,65.58
2022-08-27T14:10:25.569Z,65.15
2022-08-27T14:11:27.697Z,65.92
2022-08-27T14:12:35.424Z,65.31
2022-08-27T14:13:43.689Z,65.33
2022-08-27T14:14:54.527Z,64.69
2022-08-27T14:15:57.902Z,65.37
2022-08-27T14:17:00.577Z,65.03
2022-08-27T14:18:03.359Z,65.69
2022-08-27T14:19:09.339Z,65.55
2022-08-27T14:20:11.132Z,64.85
2022-08-27T14:21:13.110Z,65.99
2022-08-27T14:22:14.958Z,65.34
2022-08-27T14:23:17.871Z,65.60
2022-08-27T14:24:19.892Z,66.43
2022-08-27T14:25:22.701Z,65.37
2022-08-27T14:26:26.981Z,65.98
2022-08-27T14:27:29.297Z,65.88
2022-08-27T14:28:32.219Z,64.74
2022-08-27T14:29:34.115Z,66.06
2022-08-27T14:30:36.517Z,66.16
2022-08-27T14:31:38.401Z,65.60
2022-08-27T14:32:42.643Z,66.33
2022-08-27T14:33:47.536Z,65.43
2022-08-27T14:34:50.352Z,66.24
2022-08-27T14:35:52.285Z,66.57
2022-08-27T14:36:55.005Z,66.78
2022-08-27T14:37:57.597Z,66.73
2022-08-27T14:39:01.377Z,66.68
2022-08-27T14:40:04.562Z,66.42
2022-08-27T14:41:07.724Z,66.45
2022-08-27T14:42:10.020Z,66.90
2022-08-27T14:43:11.874Z,65.64
2022-08-27T14:44:13.761Z,65.84
2022-08-27T14:45:15.667Z,65.63
2022-08-27T14:46:23.998Z,66.07
2022-08-27T14:47:29.393Z,65.25
2022-08-27T14:48:35.169Z,65.70
2022-08-27T14:49:39.945Z,66.43
2022-08-27T14:50:42.600Z,66.98
2022-08-27T14:51:46.207Z,66.65
2022-08-27T14:52:48.018Z,66.80
2022-08-27T14:53:51.410Z,66.29
2022-08-27T14:54:53.317Z,67.10
2022-08-27T14:55:56.276Z,66.82
2022-08-27T14:56:59.337Z,67.15
2022-08-27T14:58:01.378Z,66.49
2022-08-27T14:59:03.383Z,66.49
2022-08-27T15:00:07.145Z,66.92
2022-08-27T15:01:09.768Z,67.07
2022-08-27T15:02:14.097Z,66.71
2022-08-27T15:03:15.888Z,67.18
2022-08-27T15:04:17.675Z,66.67
2022-08-27T15:05:22.515Z,66.83
2022-08-27T15:06:27.433Z,67.06
2022-08-27T15:07:29.416Z,66.62
2022-08-27T15:08:32.288Z,66.92
2022-08-27T15:09:34.220Z,66.71
2022-08-27T15:10:36.140Z,66.72
2022-08-27T15:11:39.944Z,67.19
2022-08-27T15:12:42.054Z,67.10
2022-08-27T15:13:44.527Z,67.21
2022-08-27T15:14:46.378Z,67.23
2022-08-27T15:15:48.648Z,67.44
2022-08-27T15:16:54.681Z,67.50
2022-08-27T15:17:56.581Z,67.70
2022-08-27T15:19:01.066Z,67.67
2022-08-27T15:20:06.777Z,67.36
2022-08-27T15:21:08.888Z,67.88
2022-08-27T15:22:18.201Z,68.58
2022-08-27T15:23:20.043Z,68.47
2022-08-27T15:24:26.728Z,68.87
2022-08-27T15:25:28.698Z,68.87
2022-08-27T15:26:30.629Z,69.11
2022-08-27T15:27:38.170Z,69.51
2022-08-27T15:28:40.809Z,69.48
2022-08-27T15:29:43.054Z,69.83
2022-08-27T15:30:44.982Z,69.73
2022-08-27T15:31:47.311Z,69.59
2022-08-27T15:32:49.270Z,69.76
2022-08-27T15:33:51.205Z,69.30
2022-08-27T15:34:53.833Z,69.78
2022-08-27T15:35:58.963Z,69.77
2022-08-27T15:37:04.388Z,69.87
2022-08-27T15:38:06.457Z,69.70
2022-08-27T15:39:08.830Z,69.98
2022-08-27T15:40:12.225Z,69.95
2022-08-27T15:41:14.409Z,69.99
2022-08-27T15:42:16.534Z,70.26
2022-08-27T15:43:18.460Z,70.62
2022-08-27T15:44:20.468Z,70.64
2022-08-27T15:45:25.564Z,70.72
2022-08-27T15:46:29.301Z,70.82
2022-08-27T15:47:31.186Z,70.66
2022-08-27T15:48:33.509Z,70.89
2022-08-27T15:49:35.369Z,70.99
2022-08-27T15:50:37.717Z,70.71
2022-08-27T15:51:40.383Z,70.96
2022-08-27T15:52:43.093Z,71.09
2022-08-27T15:53:45.047Z,71.11
2022-08-27T15:54:48.579Z,71.87
2022-08-27T15:55:50.712Z,72.24
2022-08-27T15:56:52.485Z,72.04
2022-08-27T15:57:55.852Z,71.88
2022-08-27T15:58:57.678Z,71.89
2022-08-27T15:59:59.406Z,72.23
2022-08-27T16:01:11.822Z,72.17
2022-08-27T16:02:21.329Z,71.88
2022-08-27T16:03:28.128Z,71.75
2022-08-27T16:04:37.382Z,72.01
2022-08-27T16:05:40.321Z,71.91
2022-08-27T16:06:42.324Z,72.01
2022-08-27T16:07:44.922Z,72.29
2022-08-27T16:08:47.356Z,72.27
2022-08-27T16:09:49.207Z,72.09
2022-08-27T16:10:51.106Z,72.61
2022-08-27T16:11:52.899Z,72.83
2022-08-27T16:12:54.877Z,72.53
2022-08-27T16:13:56.703Z,72.89
2022-08-27T16:14:58.510Z,72.64
2022-08-27T16:16:01.242Z,72.66
2022-08-27T16:17:03.117Z,72.84
2022-08-27T16:18:04.909Z,72.64
2022-08-27T16:19:08.010Z,72.68
2022-08-27T16:20:11.313Z,72.98
2022-08-27T16:21:13.115Z,72.73
2022-08-27T16:22:16.380Z,72.82
2022-08-27T16:23:20.271Z,72.65
2022-08-27T16:24:22.934Z,72.98
2022-08-27T16:25:24.904Z,72.72
2022-08-27T16:26:26.704Z,72.45
2022-08-27T16:27:28.460Z,72.22
2022-08-27T16:28:30.351Z,72.35
2022-08-27T16:29:32.276Z,72.79
2022-08-27T16:30:34.089Z,72.58
2022-08-27T16:31:37.357Z,72.64
2022-08-27T16:32:40.788Z,72.82
2022-08-27T16:33:42.911Z,73.04
2022-08-27T16:34:45.215Z,73.12
2022-08-27T16:35:47.119Z,73.18
2022-08-27T16:36:49.055Z,73.16
2022-08-27T16:37:51.159Z,73.22
2022-08-27T16:38:53.030Z,72.99
2022-08-27T16:39:54.972Z,73.00
2022-08-27T16:40:57.099Z,73.03
2022-08-27T16:41:58.874Z,73.11
2022-08-27T16:43:01.689Z,73.74
2022-08-27T16:44:03.864Z,74.33
2022-08-27T16:45:05.993Z,75.17
2022-08-27T16:46:07.955Z,75.71
2022-08-27T16:47:09.820Z,75.66
2022-08-27T16:48:30.140Z,75.82
2022-08-27T16:49:50.782Z,75.83
2022-08-27T16:50:52.639Z,75.72
2022-08-27T16:51:54.487Z,76.08
2022-08-27T16:52:57.209Z,75.88
2022-08-27T16:53:59.201Z,75.85
2022-08-27T16:55:01.087Z,75.74
2022-08-27T16:56:03.183Z,76.10
2022-08-27T16:57:05.130Z,76.49
2022-08-27T16:58:10.479Z,77.43
2022-08-27T16:59:13.398Z,76.79
2022-08-27T17:00:15.279Z,77.09
2022-08-27T17:01:18.498Z,77.25
2022-08-27T17:02:30.333Z,77.30
2022-08-27T17:03:58.020Z,77.04
2022-08-27T17:05:12.135Z,76.79
2022-08-27T17:06:21.864Z,77.20
2022-08-27T17:07:25.919Z,77.33
2022-08-27T17:08:28.948Z,77.05
2022-08-27T17:09:30.749Z,77.60
2022-08-27T17:10:34.119Z,77.62
2022-08-27T17:11:36.505Z,77.54
2022-08-27T17:12:38.303Z,77.76
2022-08-27T17:13:40.105Z,78.00
2022-08-27T17:14:41.890Z,77.83
2022-08-27T17:15:44.566Z,77.82
2022-08-27T17:16:46.428Z,77.82
2022-08-27T17:17:48.271Z,78.04
2022-08-27T17:18:50.738Z,78.33
2022-08-27T17:19:52.537Z,79.14
2022-08-27T17:20:55.209Z,79.42
2022-08-27T17:21:57.016Z,79.45
2022-08-27T17:22:59.556Z,79.34
2022-08-27T17:24:02.839Z,79.33
2022-08-27T17:25:06.432Z,78.83
2022-08-27T17:26:09.590Z,78.71
2022-08-27T17:27:11.513Z,79.05
2022-08-27T17:28:13.654Z,78.71
2022-08-27T17:29:15.765Z,79.24
2022-08-27T17:30:17.672Z,79.80
2022-08-27T17:31:27.789Z,79.64
2022-08-27T17:32:31.497Z,79.62
2022-08-27T17:33:39.359Z,79.88
2022-08-27T17:34:41.208Z,79.83
2022-08-27T17:35:43.008Z,80.02
2022-08-27T17:36:46.077Z,79.77
2022-08-27T17:37:48.457Z,80.46
2022-08-27T17:38:51.027Z,80.64
2022-08-27T17:39:53.464Z,80.12
2022-08-27T17:40:55.328Z,80.20
2022-08-27T17:41:57.316Z,79.99
2022-08-27T17:42:59.164Z,80.17
2022-08-27T17:44:02.479Z,80.13
2022-08-27T17:45:05.004Z,79.71
2022-08-27T17:46:07.346Z,79.75
2022-08-27T17:47:09.386Z,80.32
2022-08-27T17:48:15.114Z,80.10
2022-08-27T17:49:21.500Z,80.07
2022-08-27T17:50:23.282Z,80.04
2022-08-27T17:51:25.417Z,79.64
2022-08-27T17:52:27.214Z,80.03
2022-08-27T17:53:29.160Z,80.12
2022-08-27T17:54:41.630Z,80.23
2022-08-27T17:55:43.475Z,80.42
2022-08-27T17:56:45.376Z,80.18
2022-08-27T17:57:47.200Z,80.33
2022-08-27T17:58:50.459Z,80.21
2022-08-27T17:59:54.773Z,80.40
2022-08-27T18:00:56.651Z,79.84
2022-08-27T18:01:59.499Z,79.99
2022-08-27T18:03:01.293Z,79.56
2022-08-27T18:04:04.399Z,80.24
2022-08-27T18:05:07.681Z,80.79
2022-08-27T18:06:09.652Z,80.92
2022-08-27T18:07:11.555Z,80.50
2022-08-27T18:08:15.028Z,80.63
2022-08-27T18:09:16.856Z,80.55
2022-08-27T18:10:22.881Z,80.15
2022-08-27T18:11:25.233Z,77.42
2022-08-27T18:12:27.666Z,75.40
2022-08-27T18:13:29.607Z,74.55
2022-08-27T18:14:31.874Z,72.44
2022-08-27T18:15:35.758Z,70.29
2022-08-27T18:16:38.895Z,69.53
2022-08-27T18:17:40.924Z,69.17
2022-08-27T18:18:45.057Z,68.98
2022-08-27T18:19:51.191Z,69.47
2022-08-27T18:20:53.201Z,69.33
2022-08-27T18:21:56.847Z,68.70
2022-08-27T18:22:59.363Z,68.27
2022-08-27T18:24:01.212Z,67.39
2022-08-27T18:25:03.419Z,67.27
2022-08-27T18:26:07.124Z,67.80
2022-08-27T18:27:09.294Z,67.99
2022-08-27T18:28:13.210Z,68.09
2022-08-27T18:29:15.596Z,68.20
2022-08-27T18:30:17.648Z,69.78
2022-08-27T18:31:20.627Z,69.86
2022-08-27T18:32:22.625Z,69.49
2022-08-27T18:33:24.553Z,68.70
2022-08-27T18:34:26.330Z,69.43
2022-08-27T18:35:29.583Z,70.09
2022-08-27T18:36:31.466Z,70.65
2022-08-27T18:37:33.275Z,71.11
2022-08-27T18:38:35.079Z,71.32
2022-08-27T18:39:39.584Z,71.24
2022-08-27T18:40:43.750Z,71.73
2022-08-27T18:41:45.692Z,71.36
2022-08-27T18:42:48.341Z,71.87
2022-08-27T18:43:50.243Z,71.83
2022-08-27T18:44:52.079Z,72.12
2022-08-27T18:45:53.962Z,72.14
2022-08-27T18:46:55.762Z,72.11
2022-08-27T18:47:58.482Z,72.56
2022-08-27T18:49:00.306Z,72.71
2022-08-27T18:50:03.129Z,72.14
2022-08-27T18:51:06.382Z,72.65
2022-08-27T18:52:12.270Z,73.33
2022-08-27T18:53:15.632Z,73.11
2022-08-27T18:54:17.571Z,73.84
2022-08-27T18:55:21.202Z,73.55
2022-08-27T18:56:23.159Z,73.79
2022-08-27T18:57:24.954Z,74.09
2022-08-27T18:58:28.131Z,74.49
2022-08-27T18:59:29.998Z,74.98
2022-08-27T19:00:32.683Z,75.13
2022-08-27T19:01:34.773Z,75.12
2022-08-27T19:02:37.351Z,75.16
2022-08-27T19:03:42.289Z,75.04
2022-08-27T19:04:44.226Z,75.12
2022-08-27T19:05:46.114Z,75.83
2022-08-27T19:06:48.298Z,76.23
2022-08-27T19:07:50.196Z,76.82
2022-08-27T19:08:52.587Z,77.10
2022-08-27T19:09:54.447Z,77.07
2022-08-27T19:10:56.233Z,76.91
2022-08-27T19:11:58.004Z,77.33
2022-08-27T19:12:59.818Z,77.51
2022-08-27T19:14:01.584Z,77.35
2022-08-27T19:15:03.463Z,77.70
2022-08-27T19:16:07.884Z,78.53
2022-08-27T19:17:14.594Z,78.09
2022-08-27T19:18:17.754Z,77.86
2022-08-27T19:19:19.693Z,77.98
2022-08-27T19:20:21.878Z,77.62
2022-08-27T19:21:23.749Z,78.02